createdAt,value
2019-01-14T00:04:31.965Z,1.90
2019-01-14T00:14:33.239Z,2.00
2019-01-14T00:24:34.566Z,2.00
2019-01-14T00:34:35.936Z,1.80
2019-01-14T00:44:37.462Z,1.90
2019-01-14T00:54:38.990Z,2.30
2019-01-14T01:04:40.497Z,2.30
2019-01-14T01:14:41.905Z,2.00
2019-01-14T01:24:43.390Z,2.00
2019-01-14T01:34:44.789Z,1.70
2019-01-14T01:44:46.156Z,1.40
2019-01-14T01:54:47.657Z,1.40
2019-01-14T04:28:46.677Z,1.80
2019-01-14T05:31:21.228Z,3.60
2019-01-14T05:41:22.840Z,4.00
2019-01-14T09:17:05.127Z,12.10
2019-01-14T15:16:40.944Z,6.30
2019-01-14T16:29:03.391Z,5.30
2019-01-14T16:49:12.618Z,5.00
2019-01-14T18:00:45.092Z,3.50
2019-01-14T18:10:45.705Z,3.80
2019-01-14T18:20:47.042Z,4.50
2019-01-14T20:02:02.789Z,2.90
2019-01-14T20:32:17.171Z,1.70
2019-01-14T20:42:18.452Z,1.70
2019-01-14T20:52:19.733Z,1.80
2019-01-14T21:02:24.298Z,1.70
2019-01-14T21:12:27.613Z,1.70
2019-01-14T21:22:33.627Z,1.70
2019-01-14T21:32:35.641Z,1.80
2019-01-14T21:42:37.659Z,1.40
2019-01-14T21:52:38.930Z,1.40
2019-01-14T22:02:40.201Z,0.90
2019-01-14T22:12:41.470Z,0.70
2019-01-14T22:22:42.856Z,0.80
2019-01-14T22:32:44.117Z,1.00
2019-01-14T22:42:45.428Z,1.00
2019-01-14T22:52:47.459Z,0.90
2019-01-14T23:02:48.693Z,0.90
2019-01-14T23:12:49.964Z,0.40
2019-01-14T23:22:51.232Z,0.20
2019-01-14T23:32:52.481Z,0.10
2019-01-14T23:42:53.725Z,0.10
2019-01-14T23:52:55.765Z,-0.10
